Tiempo atmosférico en la estación meteorológica de Cádiz, Cadiz (1 m.)

Fecha
DESCASC
Temp. máxima en grados centígrados (hora)
DESCASC
Temp. mínima en grados centígrados (hora)
DESCASC
Temp. media en grados centígrados
DESCASC
Racha de viento máxima en m/sg (hora)
DESCASC
Velocidad máxima media en intervalos de 10 minutos(hora)
DESCASC
Precipitaciones diarias en mm
DESCASC
Precipitaciones de 00:00 a 06:00 en mm
DESCASC
Precipitaciones de 06:00 a 12:00 en mm
DESCASC
Precipitaciones de 12:00 a 18:00 en mm
DESCASC
Precipitaciones de 18:00 a 24:00 en mm
DESCASC
23-11-2017 20.7 (16:50) 12.7 (07:30) 16.7 8.06 (13:10) 5.56 (13:50) 0 0 0 0 0
22-11-2017 20.7 (12:50) 11.3 (08:20) 16 7.78 (14:10) 5.56 (15:40) 0 0 0 0 0
21-11-2017 21.4 (15:20) 13 (08:40) 17.2 5.83 (15:30) 4.17 (21:50) 0 0 0 0 0
20-11-2017 22.4 (14:50) 12.4 (07:40) 17.4 9.72 (20:50) 7.5 (20:50) 0 0 0 0 0
19-11-2017 21.2 (15:40) 12.4 (00:00) 16.8 10.83 (12:40) 8.61 (12:40) 0 0 0 0 0
18-11-2017 22.4 (16:00) 13 (00:00) 17.7 7.5 (03:40) 5.83 (03:40) 0 0 0 0 0
17-11-2017 21.5 (14:10) 12.6 (00:00) 17.1 6.67 (23:30) 4.72 (23:30) 0 0 0 0 0
16-11-2017 20 (15:00) 12.3 (00:00) 16.2 6.39 (00:30) 4.72 (00:30) 0 0 0 0 0
15-11-2017 20.6 (15:00) 11.4 (00:00) 16 10 (13:40) 6.67 (12:10) 0 0 0 0 0
14-11-2017 17.9 (15:50) 10.8 (00:00) 14.3 10.28 (13:10) 7.78 (13:10) 0 0 0 0 0
13-11-2017 18.9 (14:10) 13.2 (00:00) 16 5.83 (09:00) 5 (09:10) 0 0 0 0 0
12-11-2017 20.1 (14:20) 12.5 (00:00) 16.3 6.11 (16:40) 4.44 (16:20) 0 0 0 0 0
11-11-2017 20.7 (16:00) 11.9 (00:00) 16.3 9.44 (16:10) 7.5 (16:10) 0 0 0 0 0
10-11-2017 18.3 (16:50) 11.3 (00:00) 14.8 16.67 (14:00) 10.28 (14:00) 0 0 0 0 0
09-11-2017 18.2 (15:50) 12.7 (00:00) 15.5 13.89 (12:00) 10.28 (10:30) 0 0 0 0 0
08-11-2017 21.8 (16:10) 12.5 (00:00) 17.1 6.39 (23:30) 4.44 (21:40) 0 0 0 0 0
07-11-2017 20.1 (16:20) 11.2 (00:00) 15.7 8.33 (15:50) 5.83 (16:10) 0 0 0 0 0
06-11-2017 21.1 (16:00) 13.6 (00:00) 17.4 7.5 (03:40) 6.11 (03:20) 0 0 0 0 0
05-11-2017 20 (16:00) 15.3 (00:00) 17.7 8.89 (00:30) 5.28 (00:30) 0 0 0 0 0
04-11-2017 21.6 (16:00) 15.9 (00:00) 18.8 13.33 (03:50) 6.67 (06:20) 14 8.8 5.2 0 0
03-11-2017 22 (12:20) 16.4 (00:00) 19.2 10.83 (14:40) 6.39 (09:40) 60.4 0 0 58.9 1.5
02-11-2017 22.3 (13:40) 19.1 (01:50) 20.7 10.28 (00:20) 8.06 (00:20) 0 0 0 0 0
01-11-2017 24.4 (15:20) 18.9 (00:00) 21.6 12.22 (00:10) 9.44 (11:00) 0 0 0 0 0
31-10-2017 24.4 (15:20) 18.1 (00:00) 21.3 12.78 (21:20) 10 (17:50) 0 0 0 0 0
30-10-2017 23.3 (14:20) 17.1 (00:00) 20.2 7.5 (23:59) 5.83 (23:59) 0 0 0 0 0
29-10-2017 26.2 (17:00) 17.8 (00:00) 22 12.78 (00:20) 9.17 (00:10) 0 0 0 0 0
28-10-2017 25.5 (16:10) 16.4 (00:00) 20.9 13.89 (22:40) 10.56 (22:00) 0 0 0 0 0
27-10-2017 28.4 (16:40) 19.2 (00:00) 23.8 9.72 (01:40) 6.67 (12:00) 0 0 0 0 0
26-10-2017 26.6 (16:30) 18.3 (00:00) 22.4 13.61 (12:50) 10.28 (14:30) 0 0 0 0 0
25-10-2017 25.6 (15:30) 18.9 (00:00) 22.3 14.72 (02:40) 11.11 (02:20) 0 0 0 0 0

Gráficas

Temp. máximas Temp. mínimas Temp. medias Precipitaciones Rachas de viento máximas Velocidades máximas media en intervalos de 10 minutos

Datos horarios

Fecha y hora oficial Temperatura (ºC) Velocidad del viento (km/h) Dirección del viento Racha (km/h) Dirección de racha Precipitación (mm) Presión (hPa) Tendencia (hPa) Humedad (%)
2017-11-23 23:00:00 17.4 6 Sudeste 8 Sudeste 0 1019.5 0 57
2017-11-23 22:00:00 17.3 4 Sudeste 7 Este 0 1019.8 0.8 63
2017-11-23 21:00:00 17.6 4 Este 5 Este 0 1019.8 1.3 62
2017-11-23 20:00:00 17.7 2 Sudeste 6 Sudeste 0 1019.5 1 58
2017-11-23 19:00:00 17.9 5 Sudeste 12 Sur 0 1019 0.6 57
2017-11-23 18:00:00 18.4 10 Sur 18 Sur 0 1018.5 0.1 58
2017-11-23 17:00:00 19.8 13 Sur 21 Sudeste 0 1018.5 -0.4 53
2017-11-23 16:00:00 20.4 14 Sur 25 Sur 0 1018.4 -0.7 54
2017-11-23 15:00:00 20 17 Sur 26 Sur 0 1018.4 -1 57
2017-11-23 14:00:00 19.6 18 Sur 29 Sudeste 0 1018.9 -0.5 62
2017-11-23 13:00:00 19.3 17 Sur 27 Sur 0 1019.1 0.3 63
2017-11-23 12:00:00 18.9 16 Sur 25 Sur 0 1019.4 1.2 69
2017-11-23 11:00:00 17.7 8 Sudeste 12 Sudeste 0 1019.4 2 68
2017-11-23 10:00:00 16 9 Sudeste 15 Sudeste 0 1018.8 1.9 67
2017-11-23 09:00:00 14.5 8 Este 11 Sudeste 0 1018.2 1.8 72
2017-11-23 08:00:00 13.1 4 Este 10 Sudeste 0 1017.4 1.5 72
2017-11-23 07:00:00 13 2 Este 7 Nordeste 0 1016.9 1 69
2017-11-23 06:00:00 14 3 Este 14 Este 0 1016.4 0.7 68
2017-11-23 05:00:00 14.3 10 Este 13 Este 0 1015.9 0.3 68
2017-11-23 04:00:00 14.1 4 Este 6 Este 0 1015.9 -0.2 70
2017-11-23 03:00:00 15 5 Sudeste 9 Sudeste 0 1015.7 -0.3 65
2017-11-23 02:00:00 14.8 8 Sudeste 12 Sudeste 0 1015.6 -0.4 66
2017-11-23 01:00:00 14.5 5 Este 7 Este 0 1016.1 0.5 75
2017-11-23 00:00:00 14.8 4 Este 8 Este 0 1016 0.3 70
2017-11-22 23:00:00 15.2 3 Sudeste 14 Sudeste 0 1016 0.5 69
2017-11-22 22:00:00 15.6 11 Sudeste 14 Sudeste 0 1015.6 0.5 77
2017-11-22 21:00:00 16.1 10 Sudeste 12 Sudeste 0 1015.7 0.9 82
2017-11-22 20:00:00 16.7 5 Sur 11 Sudeste 0 1015.5 0.6 81
2017-11-22 19:00:00 17.3 8 Sur 17 Sur 0 1015.1 0.4 77
2017-11-22 18:00:00 18.1 12 Sur 22 Sur 0 1014.8 -0.1 73
2017-11-22 17:00:00 19.2 13 Sur 24 Sur 0 1014.9 -0.9 68
2017-11-22 16:00:00 19.4 18 Sur 27 Sur 0 1014.7 -1 66
2017-11-22 15:00:00 19.5 19 Sur 28 Sur 0 1014.9 -1.4 64
2017-11-22 14:00:00 19.6 13 Sur 26 Sur 0 1015.8 -1.2 66
2017-11-22 13:00:00 19.5 8 Sur 20 Sudeste 0 1015.7 -1.3 59
2017-11-22 12:00:00 18.3 4 Sudeste 10 Este 0 1016.3 -0.4 60
2017-11-22 11:00:00 16.1 6 Este 9 Este 0 1017 1.2 61
2017-11-22 10:00:00 13.5 7 Nordeste 9 Nordeste 0 1017 1.4 67
2017-11-22 09:00:00 12.6 5 Norte 9 Nordeste 0 1016.7 0.9 72
2017-11-22 08:00:00 11.5 4 Nordeste 9 Nordeste 0 1015.8 -0.1 71
2017-11-22 07:00:00 11.8 4 Nordeste 9 Norte 0 1015.6 -1.1 71
2017-11-22 06:00:00 12.2 6 Nordeste 11 Norte 0 1015.8 -1 67
2017-11-22 05:00:00 12.8 5 Nordeste 11 Nordeste 0 1015.9 -1.1 63
2017-11-22 04:00:00 13.3 6 Norte 10 Nordeste 0 1016.7 -1.1 68
2017-11-22 03:00:00 13.6 4 Este 13 Este 0 1016.8 -1.3 63
2017-11-22 02:00:00 13.7 6 Este 20 Este 0 1017 -1.3 64
2017-11-22 01:00:00 13.9 4 Este 13 Este 0 1017.8 -0.5 63
2017-11-22 00:00:00 14 3 Nordeste 9 Este 0 1018.1 -0.4 59
2017-11-21 23:00:00 14.8 3 Este 16 Este 0 1018.3 -0.4 60
2017-11-21 22:00:00 15.7 11 Este 19 Este 0 1018.3 -0.3 73
2017-11-21 21:00:00 16.2 5 Este 9 Este 0 1018.5 0.1 85
2017-11-21 20:00:00 16.7 2 Norte 4 Norte 0 1018.7 0 84
2017-11-21 19:00:00 17.7 3 Norte 6 Norte 0 1018.6 0.1 77
2017-11-21 18:00:00 19.3 2 Oeste 12 Oeste 0 1018.4 -0.4 66
2017-11-21 17:00:00 20.9 6 Oeste 18 Sur 0 1018.7 -0.7 62
2017-11-21 16:00:00 20.7 10 Sur 21 Sur 0 1018.5 -1.7 61
2017-11-21 15:00:00 21.1 9 Sudoeste 19 Sur 0 1018.8 -2.1 57
2017-11-21 14:00:00 20.2 8 Sudoeste 14 Sudoeste 0 1019.4 -1.9 58
2017-11-21 13:00:00 19.4 4 Noroeste 6 Norte 0 1020.2 -0.9 66
2017-11-21 12:00:00 16.9 6 Noroeste 8 Norte 0 1020.9 0 73
2017-11-21 11:00:00 14.7 6 Norte 10 Norte 0 1021.3 0.6 75
2017-11-21 10:00:00 13.7 7 Norte 10 Norte 0 1021.1 0.6 75
2017-11-21 09:00:00 13.8 2 Nordeste 10 Nordeste 0 1020.9 0.3 73
2017-11-21 08:00:00 13.6 5 Nordeste 10 Nordeste 0 1020.7 0.2 72
2017-11-21 07:00:00 14.2 7 Nordeste 12 Nordeste 0 1020.5 0 68
2017-11-21 06:00:00 14.9 5 Este 18 Este 0 1020.6 0.1 69
2017-11-21 05:00:00 15.2 8 Este 19 Este 0 1020.5 -0.2 71
2017-11-21 04:00:00 14.5 8 Nordeste 14 Nordeste 0 1020.5 -0.4 75
2017-11-21 03:00:00 14.6 5 Este 16 Este 0 1020.5 -0.6 75
2017-11-21 02:00:00 14.3 6 Nordeste 11 Nordeste 0 1020.7 -0.5 76
2017-11-21 01:00:00 14.8 6 Este 21 Este 0 1020.9 -0.2 75
2017-11-21 00:00:00 14.9 8 Este 13 Este 0 1021.1 0.1 76
2017-11-20 23:00:00 15.3 4 Este 13 Este 0 1021.2 0.4 74
2017-11-20 22:00:00 16.7 13 Este 31 Sudeste 0 1021.1 0.8 71
2017-11-20 21:00:00 17 25 Este 35 Sudeste 0 1021 0.8 68
2017-11-20 20:00:00 17.5 23 Sudeste 32 Sudeste 0 1020.8 0.5 63
2017-11-20 19:00:00 18.4 17 Sudeste 21 Sudeste 0 1020.3 0.4 59
2017-11-20 18:00:00 19.4 16 Sudeste 23 Sudeste 0 1020.2 -0.1 55
2017-11-20 17:00:00 21.1 10 Sudeste 19 Sudeste 0 1020.3 -0.4 54
2017-11-20 16:00:00 21.1 5 Oeste 17 Sudoeste 0 1019.9 -1.6 59
2017-11-20 15:00:00 21.7 7 Sur 27 Este 0 1020.3 -1.5 53
2017-11-20 14:00:00 21.7 19 Este 27 Este 0 1020.7 -1.2 50
2017-11-20 13:00:00 21.4 11 Este 22 Este 0 1021.5 0.1 53
2017-11-20 12:00:00 20 18 Este 26 Este 0 1021.8 0.9 60
2017-11-20 11:00:00 18.5 5 Este 13 Este 0 1021.9 1.2 72
2017-11-20 10:00:00 13.9 9 Norte 13 Nordeste 0 1021.4 1 79
2017-11-20 09:00:00 14.4 10 Nordeste 14 Este 0 1020.9 0.9 76
2017-11-20 08:00:00 12.9 9 Norte 13 Nordeste 0 1020.7 1 79
2017-11-20 07:00:00 14.1 9 Nordeste 15 Nordeste 0 1020.4 0.5 75
2017-11-20 06:00:00 13.9 9 Nordeste 14 Nordeste 0 1020 -0.1 79
2017-11-20 05:00:00 14.4 10 Nordeste 16 Nordeste 0 1019.7 -0.5 78
2017-11-20 04:00:00 15.5 9 Nordeste 20 Nordeste 0 1019.9 -0.5 77
2017-11-20 03:00:00 15.7 9 Nordeste 24 Este 0 1020.1 -0.2 76
2017-11-20 02:00:00 16.2 9 Este 32 Este 0 1020.2 -0.3 75
2017-11-20 01:00:00 16.1 16 Este 32 Este 0 1020.4 0.2 76
2017-11-20 00:00:00 16.1 18 Este 33 Este 0 1020.3 0.6 78
2017-11-19 23:00:00 15.5 9 Nordeste 24 Este 0 1020.5 1 77
2017-11-19 22:00:00 16.2 11 Este 27 Este 0 1020.2 1 74
2017-11-19 21:00:00 16.7 21 Este 31 Este 0 1019.7 1 69
2017-11-19 20:00:00 17 25 Este 32 Este 0 1019.5 1.1 66
2017-11-19 19:00:00 17.7 18 Este 29 Este 0 1019.2 0.9 63
2017-11-19 18:00:00 18.7 26 Este 33 Este 0 1018.7 0.4 56
2017-11-19 17:00:00 20.2 23 Este 31 Este 0 1018.4 -0.5 54
2017-11-19 16:00:00 20.6 21 Sudeste 27 Sudeste 0 1018.3 -1 54
2017-11-19 15:00:00 20.4 22 Este 34 Este 0 1018.3 -1.7 56
2017-11-19 14:00:00 20.2 24 Este 33 Sudeste 0 1018.9 -1 59
2017-11-19 13:00:00 19.7 23 Este 39 Este 0 1019.3 -0.4 61
2017-11-19 12:00:00 19 23 Este 35 Este 0 1020 0.7 65
2017-11-19 11:00:00 18.2 24 Este 35 Este 0 1019.9 1.3 69
2017-11-19 10:00:00 15.3 7 Nordeste 14 Este 0 1019.7 1.7 74
2017-11-19 09:00:00 13.1 8 Nordeste 15 Nordeste 0 1019.3 1.5 80
2017-11-19 08:00:00 12.5 8 Nordeste 15 Nordeste 0 1018.6 0.9 84
2017-11-19 07:00:00 13.3 9 Nordeste 21 Este 0 1018 0.2 81
2017-11-19 06:00:00 15 12 Este 27 Este 0 1017.8 0.1 78
2017-11-19 05:00:00 15.2 10 Este 37 Este 0 1017.7 -0.3 79
2017-11-19 04:00:00 15.1 11 Este 25 Este 0 1017.8 -0.5 80
2017-11-19 03:00:00 15 13 Este 21 Este 0 1017.7 -0.6 79
2017-11-19 02:00:00 14.7 6 Nordeste 22 Este 0 1018 -0.1 80
2017-11-19 01:00:00 15.1 14 Este 24 Este 0 1018.3 0.2 81
2017-11-19 00:00:00 15 7 Este 18 Este 0 1018.3 0.4 80
2017-11-18 23:00:00 15.4 14 Este 23 Este 0 1018.1 0.3 79
2017-11-18 22:00:00 15.6 17 Este 23 Este 0 1018.1 0.7 77
2017-11-18 21:00:00 16.1 8 Este 15 Este 0 1017.9 0.8 69
2017-11-18 20:00:00 16.7 4 Este 12 Este 0 1017.8 0.8 65
2017-11-18 19:00:00 17.6 7 Sudeste 14 Sudeste 0 1017.4 0.6 65
2017-11-18 18:00:00 18.8 10 Sudeste 15 Sudeste 0 1017.1 0.1 59
2017-11-18 17:00:00 21.1 5 Sur 9 Sur 0 1017 -0.7 53
2017-11-18 16:00:00 22.3 2 Sur 17 Este 0 1016.8 -1.6 50
2017-11-18 15:00:00 21.7 10 Este 15 Este 0 1017 -1.9 53
2017-11-18 14:00:00 21.4 7 Este 19 Este 0 1017.7 -1.5 51
2017-11-18 13:00:00 20.3 14 Este 21 Este 0 1018.4 -0.7 54
2017-11-18 12:00:00 19 14 Este 26 Este 0 1018.9 0.4 64
2017-11-18 11:00:00 17.4 8 Nordeste 15 Nordeste 0 1019.2 1.2 71
2017-11-18 10:00:00 15.2 6 Nordeste 10 Este 0 1019.1 1 77
2017-11-18 09:00:00 13.8 3 Nordeste 13 Este 0 1018.5 0.5 84
2017-11-18 08:00:00 13.2 4 Este 11 Nordeste 0 1018 0.1 85
2017-11-18 07:00:00 13.1 4 Nordeste 11 Este 0 1018.1 0 84
2017-11-18 06:00:00 13.3 4 Nordeste 19 Este 0 1018 -0.3 84
2017-11-18 05:00:00 14.6 11 Este 25 Este 0 1017.9 -0.5 81
2017-11-18 04:00:00 15.1 18 Este 27 Este 0 1018.1 -0.4 79
2017-11-18 03:00:00 14.9 13 Este 22 Este 0 1018.3 -0.6 81
2017-11-18 02:00:00 15 15 Este 21 Este 0 1018.4 -0.3 81
2017-11-18 01:00:00 15.1 15 Este 22 Este 0 1018.5 -0.1 81
2017-11-18 00:00:00 15.3 13 Este 24 Este 0 1018.9 0.5 81
2017-11-17 23:00:00 15.4 12 Sudeste 16 Sudeste 0 1018.7 0.5 79
2017-11-17 22:00:00 15.5 4 Este 17 Este 0 1018.6 1 77
2017-11-17 21:00:00 16 4 Este 21 Sudeste 0 1018.4 1 76
2017-11-17 20:00:00 16.8 17 Sudeste 21 Sudeste 0 1018.2 1.1 75
2017-11-17 19:00:00 17.7 4 Sur 9 Sur 0 1017.6 0.2 79
2017-11-17 18:00:00 18.9 5 Sur 11 Sur 0 1017.4 -0.4 71
2017-11-17 17:00:00 19.9 6 Norte 16 Norte 0 1017.1 -1.5 62
2017-11-17 16:00:00 19.1 12 Norte 16 Norte 0 1017.4 -1.8 63
2017-11-17 15:00:00 19.4 11 Norte 16 Norte 0 1017.8 -2.3 59
2017-11-17 14:00:00 21.4 6 Este 15 Este 0 1018.6 -1.6 53
2017-11-17 13:00:00 20.6 5 Este 12 Este 0 1019.2 -0.9 59
2017-11-17 12:00:00 19.4 5 Este 18 Este 0 1020.1 0.5 66
2017-11-17 11:00:00 17.7 7 Este 19 Este 0 1020.2 1.2 75
2017-11-17 10:00:00 14.5 5 Nordeste 10 Nordeste 0 1020.1 1.5 85
2017-11-17 09:00:00 13 8 Norte 10 Norte 0 1019.6 0.9 87
2017-11-17 08:00:00 13.3 5 Nordeste 18 Este 0 1019 0.6 84
2017-11-17 07:00:00 14.3 12 Este 19 Este 0 1018.6 -0.3 84
2017-11-17 06:00:00 14.3 4 Este 20 Este 0 1018.7 -0.4 83
2017-11-17 05:00:00 14.8 7 Este 17 Este 0 1018.4 -0.6 84
2017-11-17 04:00:00 14.9 9 Este 22 Este 0 1018.9 -0.6 84
2017-11-17 03:00:00 14.9 7 Este 21 Este 0 1019.1 -0.3 84
2017-11-17 02:00:00 14.9 13 Este 21 Este 0 1019 -0.5 84
2017-11-17 01:00:00 14.9 14 Este 19 Este 0 1019.5 0.5 84
2017-11-17 00:00:00 14.7 9 Este 15 Este 0 1019.4 0.7 84
2017-11-16 23:00:00 14.6 6 Este 10 Este 0 1019.5 1 85
2017-11-16 22:00:00 14.7 7 Este 10 Nordeste 0 1019 1 84
2017-11-16 21:00:00 16.3 3 Nordeste 6 Norte 0 1018.7 1 78
2017-11-16 20:00:00 16.7 2 Norte 8 Noroeste 0 1018.5 0.8 72
2017-11-16 19:00:00 17.5 7 Noroeste 12 Oeste 0 1018 0.1 69
2017-11-16 18:00:00 17.7 9 Noroeste 15 Noroeste 0 1017.7 -0.4 66
2017-11-16 17:00:00 18.5 12 Noroeste 16 Noroeste 0 1017.7 -0.9 63
2017-11-16 16:00:00 19.2 10 Oeste 14 Oeste 0 1017.9 -1.5 57
2017-11-16 15:00:00 19.5 8 Oeste 14 Oeste 0 1018.1 -2 55
2017-11-16 14:00:00 18.8 3 Norte 4 Norte 0 1018.6 -1.5 66
2017-11-16 13:00:00 17.8 4 Norte 6 Norte 0 1019.4 -0.4 71
2017-11-16 12:00:00 17.4 4 Norte 9 Nordeste 0 1020.1 0.9 71
2017-11-16 11:00:00 16.9 5 Nordeste 11 Este 0 1020.1 1.4 71
2017-11-16 10:00:00 15.4 4 Este 11 Este 0 1019.8 1.7 78
2017-11-16 09:00:00 13.2 3 Nordeste 7 Norte 0 1019.2 1.1 84
2017-11-16 08:00:00 12.3 3 Nordeste 9 Este 0 1018.7 0.6 83
2017-11-16 07:00:00 12.4 5 Nordeste 13 Nordeste 0 1018.1 -0.1 83
2017-11-16 06:00:00 12.3 7 Nordeste 11 Nordeste 0 1018.1 -0.2 83
2017-11-16 05:00:00 13.3 4 Norte 7 Norte 0 1018.1 -0.1 82
2017-11-16 04:00:00 13.6 6 Norte 8 Nordeste 0 1018.2 0 81
2017-11-16 03:00:00 14 4 Nordeste 10 Este 0 1018.3 0.2 78
2017-11-16 02:00:00 14.5 5 Este 21 Este 0 1018.2 -0.1 78
2017-11-16 01:00:00 15.1 15 Este 23 Este 0 1018.2 0 78
2017-11-16 00:00:00 15.2 15 Este 21 Este 0 1018.1 0.2 78
2017-11-15 23:00:00 15.1 9 Este 19 Este 0 1018.3 0.6 75
2017-11-15 22:00:00 15.3 12 Este 15 Este 0 1018.2 0.7 73
2017-11-15 21:00:00 15.8 7 Este 14 Este 0 1017.9 0.8 70
2017-11-15 20:00:00 16.3 11 Sudeste 18 Sudeste 0 1017.7 0.4 69
2017-11-15 19:00:00 17.1 13 Este 19 Sudeste 0 1017.5 0.4 67
2017-11-15 18:00:00 18.1 17 Sudeste 20 Este 0 1017.1 -0.2 63
2017-11-15 17:00:00 19.7 15 Este 20 Sudeste 0 1017.3 -0.2 57
2017-11-15 16:00:00 20.4 15 Este 27 Este 0 1017.1 -1.3 54
2017-11-15 15:00:00 20.5 19 Este 32 Este 0 1017.3 -1.8 54
2017-11-15 14:00:00 20 23 Este 36 Este 0 1017.5 -2.1 56
2017-11-15 13:00:00 19.5 20 Este 33 Este 0 1018.4 -0.9 60
2017-11-15 12:00:00 19.1 22 Este 32 Este 0 1019.1 0.1 64
2017-11-15 11:00:00 15.5 9 Nordeste 17 Nordeste 0 1019.6 0.9 69
2017-11-15 10:00:00 13.3 9 Nordeste 15 Nordeste 0 1019.3 1.5 72
2017-11-15 09:00:00 11.8 12 Nordeste 18 Nordeste 0 1019 1.5 74
2017-11-15 08:00:00 11.5 12 Norte 15 Norte 0 1018.7 1.3 75
2017-11-15 07:00:00 11.4 8 Nordeste 12 Nordeste 0 1017.8 0.2 75
2017-11-15 06:00:00 12.9 6 Nordeste 13 Nordeste 0 1017.5 -0.1 76
2017-11-15 05:00:00 12.9 9 Nordeste 12 Nordeste 0 1017.4 -0.2 72
2017-11-15 04:00:00 12.6 9 Nordeste 13 Nordeste 0 1017.6 -0.1 76
2017-11-15 03:00:00 13.8 6 Nordeste 13 Nordeste 0 1017.6 -0.1 81
2017-11-15 02:00:00 14.7 7 Nordeste 24 Este 0 1017.6 0 82
2017-11-15 01:00:00 15.1 9 Este 17 Este 0 1017.7 0.4 81
2017-11-15 00:00:00 15.5 13 Este 21 Sudeste 0 1017.7 0.7 78
2017-11-14 23:00:00 15.8 18 Sudeste 24 Sudeste 0 1017.6 0.8 73
2017-11-14 22:00:00 15.8 20 Sudeste 27 Sudeste 0 1017.3 1 73
2017-11-14 21:00:00 14.5 5 Nordeste 13 Nordeste 0 1017 1.1 47
2017-11-14 20:00:00 15.6 9 Nordeste 17 Nordeste 0 1016.8 1.1 39
2017-11-14 19:00:00 16.3 12 Nordeste 20 Nordeste 0 1016.3 0.6 39
2017-11-14 18:00:00 17 14 Norte 23 Norte 0 1015.9 -0.3 38
2017-11-14 17:00:00 17.5 17 Norte 25 Norte 0 1015.7 -1.2 35
2017-11-14 16:00:00 17.3 17 Norte 27 Nordeste 0 1015.7 -1.9 36
2017-11-14 15:00:00 16.7 22 Norte 31 Norte 0 1016.2 -2.2 40
2017-11-14 14:00:00 16.3 19 Nordeste 37 Norte 0 1016.9 -1.5 41
2017-11-14 13:00:00 15.6 24 Nordeste 37 Nordeste 0 1017.6 -0.8 40
2017-11-14 12:00:00 14.7 23 Nordeste 33 Norte 0 1018.4 0.2 42
2017-11-14 11:00:00 13.9 23 Norte 32 Norte 0 1018.4 0.8 48
2017-11-14 10:00:00 12.7 23 Norte 35 Nordeste 0 1018.4 1.3 53
2017-11-14 09:00:00 11.3 21 Norte 27 Norte 0 1018.2 1.3 60
2017-11-14 08:00:00 11.2 18 Norte 24 Norte 0 1017.6 0.9 66
2017-11-14 07:00:00 11.8 15 Norte 22 Norte 0 1017.1 0.2 67
2017-11-14 06:00:00 11.3 10 Nordeste 13 Nordeste 0 1016.9 0.1 78
2017-11-14 05:00:00 12 7 Norte 13 Norte 0 1016.7 -0.3 86
2017-11-14 04:00:00 12.3 4 Nordeste 13 Nordeste 0 1016.9 -0.3 86
2017-11-14 03:00:00 13.4 7 Norte 10 Norte 0 1016.8 -0.2 87
2017-11-14 02:00:00 13.5 5 Nordeste 10 Este 0 1017 -0.1 87
2017-11-14 01:00:00 14.3 4 Nordeste 5 Nordeste 0 1017.2 0 85
2017-11-14 00:00:00 15 0 Calma 5 Sudeste 0 1017 0.1 83
2017-11-13 23:00:00 15.8 2 Sudeste 5 Sudeste 0 1017.1 0.2 82
2017-11-13 22:00:00 16.1 5 Sudeste 7 Este 0 1017.2 0.7 79
2017-11-13 21:00:00 16.6 4 Noroeste 9 Noroeste 0 1016.9 0.6 69
2017-11-13 20:00:00 17.2 5 Noroeste 14 Noroeste 0 1016.9 0.5 68
2017-11-13 19:00:00 17.3 9 Noroeste 16 Noroeste 0 1016.5 0.1 67
2017-11-13 18:00:00 17.5 12 Noroeste 19 Noroeste 0 1016.3 -0.2 66
2017-11-13 17:00:00 17.9 14 Noroeste 20 Oeste 0 1016.4 -0.9 63
2017-11-13 16:00:00 17.9 13 Oeste 20 Oeste 0 1016.4 -1.9 63
2017-11-13 15:00:00 18.4 11 Oeste 17 Oeste 0 1016.5 -2.5 61
2017-11-13 14:00:00 18.7 0 Calma 10 Oeste 0 1017.3 -2.3 60
2017-11-13 13:00:00 16.9 2 Norte 11 Norte 0 1018.3 -0.8 64
2017-11-13 12:00:00 15.6 8 Norte 11 Norte 0 1019 -0.2 72
2017-11-13 11:00:00 15.6 2 Nordeste 6 Sudeste 0 1019.6 1.3 70
2017-11-13 10:00:00 14.3 4 Noroeste 20 Norte 0 1019.1 0.8 75
2017-11-13 09:00:00 13.9 15 Norte 21 Norte 0 1019.2 1 78
2017-11-13 08:00:00 14.3 8 Noroeste 14 Norte 0 1018.3 -0.2 77
2017-11-13 07:00:00 13.4 7 Norte 11 Norte 0 1018.3 -0.3 84
2017-11-13 06:00:00 14.2 9 Norte 15 Norte 0 1018.2 -0.3 79
2017-11-13 05:00:00 14.1 6 Norte 15 Norte 0 1018.5 -0.3 79
2017-11-13 04:00:00 14.1 10 Norte 14 Norte 0 1018.6 -0.6 84
2017-11-13 03:00:00 15.4 10 Norte 17 Norte 0 1018.5 -0.9 74
2017-11-13 02:00:00 16.1 13 Norte 16 Norte 0 1018.8 -0.9 72
2017-11-13 01:00:00 17 10 Noroeste 15 Norte 0 1019.2 -0.7 75
2017-11-13 00:00:00 18.5 13 Noroeste 20 Noroeste 0 1019.4 -0.8 72
2017-11-12 23:00:00 18.1 7 Oeste 14 Oeste 0 1019.7 -0.4 81
2017-11-12 22:00:00 18 6 Oeste 14 Oeste 0 1019.9 0 78
2017-11-12 21:00:00 17.9 8 Noroeste 17 Oeste 0 1020.2 0.4 77
2017-11-12 20:00:00 17.7 8 Oeste 14 Oeste 0 1020.1 0.2 72
2017-11-12 19:00:00 17.5 6 Oeste 12 Oeste 0 1019.9 -0.1 69
2017-11-12 18:00:00 18.3 10 Oeste 20 Oeste 0 1019.8 -0.6 66
2017-11-12 17:00:00 19.3 12 Oeste 22 Noroeste 0 1019.9 -1.3 61
2017-11-12 16:00:00 19.7 13 Oeste 18 Oeste 0 1020 -1.7 62
2017-11-12 15:00:00 19 11 Oeste 17 Oeste 0 1020.4 -2.1 65
2017-11-12 14:00:00 20 4 Noroeste 8 Noroeste 0 1021.2 -1.6 57
2017-11-12 13:00:00 18.2 5 Noroeste 7 Noroeste 0 1021.7 -1.2 57
2017-11-12 12:00:00 16.5 3 Norte 6 Norte 0 1022.5 -0.1 62
2017-11-12 11:00:00 14.8 4 Nordeste 9 Norte 0 1022.8 0.4 66
2017-11-12 10:00:00 13.6 7 Norte 10 Norte 0 1022.9 0.9 72
2017-11-12 09:00:00 12.7 7 Norte 9 Norte 0 1022.6 0.5 78
2017-11-12 08:00:00 12.9 6 Norte 10 Noroeste 0 1022.4 0.6 80
2017-11-12 07:00:00 13.4 5 Norte 10 Norte 0 1022 0 75
2017-11-12 06:00:00 14.4 8 Norte 14 Norte 0 1022.1 -0.1 74
2017-11-12 05:00:00 14.1 8 Norte 11 Nordeste 0 1021.8 -0.9 73
2017-11-12 04:00:00 13.7 5 Nordeste 8 Nordeste 0 1022 -1.2 74
2017-11-12 03:00:00 14.9 6 Norte 11 Norte 0 1022.2 -1.5 76
2017-11-12 02:00:00 16.1 8 Norte 15 Norte 0 1022.7 -1 81
2017-11-12 01:00:00 15.6 11 Norte 15 Norte 0 1023.2 -0.7 81
2017-11-12 00:00:00 17 10 Noroeste 22 Noroeste 0 1023.7 -0.1 84
2017-11-11 23:00:00 17.5 18 Noroeste 22 Noroeste 0 1023.7 0.1 78
2017-11-11 22:00:00 18.2 14 Noroeste 22 Noroeste 0 1023.9 0.7 64
2017-11-11 21:00:00 18.1 14 Noroeste 23 Noroeste 0 1023.8 0.7 61
2017-11-11 20:00:00 18.4 14 Noroeste 22 Norte 0 1023.6 0.4 62
2017-11-11 19:00:00 18.9 13 Norte 25 Nordeste 0 1023.2 0.2 61
2017-11-11 18:00:00 19.9 20 Norte 32 Norte 0 1023.1 -0.6 50
2017-11-11 17:00:00 20.4 25 Norte 34 Norte 0 1023.2 -1.4 48
2017-11-11 16:00:00 20.6 26 Norte 32 Norte 0 1023 -2.5 48
2017-11-11 15:00:00 20.4 21 Norte 29 Norte 0 1023.7 -2.6 50
2017-11-11 14:00:00 20.2 20 Norte 30 Norte 0 1024.6 -1.9 50
2017-11-11 13:00:00 18.7 19 Norte 28 Norte 0 1025.5 -1.1 54
2017-11-11 12:00:00 17.7 18 Norte 26 Norte 0 1026.3 -0.1 57
2017-11-11 11:00:00 16.8 19 Norte 27 Nordeste 0 1026.5 0 57
2017-11-11 10:00:00 15.1 21 Norte 26 Norte 0 1026.6 0.2 62
2017-11-11 09:00:00 12.9 17 Norte 23 Norte 0 1026.4 0 66
2017-11-11 08:00:00 12.2 13 Nordeste 19 Nordeste 0 1026.5 0 66
2017-11-11 07:00:00 12.3 13 Norte 18 Nordeste 0 1026.4 -0.3 66
2017-11-11 06:00:00 12.8 10 Nordeste 17 Norte 0 1026.4 -0.7 64
2017-11-11 05:00:00 12.7 12 Norte 17 Norte 0 1026.5 -0.8 65
2017-11-11 04:00:00 13.8 12 Norte 15 Norte 0 1026.7 -0.7 64
2017-11-11 03:00:00 13.9 10 Norte 13 Norte 0 1027.1 -0.6 61
2017-11-11 02:00:00 13.4 9 Norte 12 Nordeste 0 1027.3 -0.2 60
2017-11-11 01:00:00 14.2 10 Nordeste 14 Nordeste 0 1027.4 0 55
2017-11-11 00:00:00 14.7 8 Sudeste 18 Nordeste 0 1027.7 0.8 56
2017-11-10 23:00:00 15.6 13 Norte 18 Norte 0 1027.5 0.4 55
2017-11-10 22:00:00 16.4 15 Norte 25 Norte 0 1027.4 0.8 54
2017-11-10 21:00:00 16.4 21 Norte 26 Norte 0 1026.9 0.8 52
2017-11-10 20:00:00 17.1 16 Nordeste 24 Nordeste 0 1027.1 1.2 49
2017-11-10 19:00:00 17.4 16 Nordeste 27 Nordeste 0 1026.6 0.7 48
2017-11-10 18:00:00 18 19 Nordeste 34 Nordeste 0 1026.1 -0.1 45
2017-11-10 17:00:00 18.3 24 Nordeste 43 Norte 0 1025.9 -0.1 44
2017-11-10 16:00:00 17.9 32 Nordeste 49 Nordeste 0 1025.9 -0.6 45
2017-11-10 15:00:00 17.3 33 Nordeste 60 Norte 0 1026.2 -1.2 45
2017-11-10 14:00:00 16.4 37 Norte 60 Norte 0 1026 -1.5 47
2017-11-10 13:00:00 15.9 32 Norte 46 Norte 0 1026.5 -0.7 49
2017-11-10 12:00:00 14.8 29 Norte 38 Norte 0 1027.4 0.3 52
2017-11-10 11:00:00 13.7 20 Norte 27 Norte 0 1027.5 1.3 57
2017-11-10 10:00:00 13.5 16 Norte 27 Nordeste 0 1027.2 1.8 57
2017-11-10 09:00:00 12 21 Nordeste 33 Nordeste 0 1027.1 1.7 59
2017-11-10 08:00:00 11.7 14 Nordeste 26 Nordeste 0 1026.2 1 60
2017-11-10 07:00:00 11.8 13 Norte 22 Norte 0 1025.4 0.3 62
2017-11-10 06:00:00 11.7 14 Nordeste 28 Norte 0 1025.4 0.7 59
2017-11-10 05:00:00 11.6 20 Norte 27 Nordeste 0 1025.2 0.2 63
2017-11-10 04:00:00 12.5 17 Nordeste 25 Nordeste 0 1025.1 -0.1 56
2017-11-10 03:00:00 13 14 Norte 24 Norte 0 1024.7 -0.3 56
2017-11-10 02:00:00 12.5 12 Norte 27 Norte 0 1025 0.4 55
2017-11-10 01:00:00 13.1 19 Norte 27 Nordeste 0 1025.2 1.1 52
2017-11-10 00:00:00 13.9 16 Norte 24 Norte 0 1025 1.4 50
2017-11-09 23:00:00 14.3 19 Norte 25 Norte 0 1024.6 1.4 51
2017-11-09 22:00:00 14.8 18 Nordeste 26 Nordeste 0 1024.1 2 48
2017-11-09 21:00:00 15.2 18 Nordeste 35 Nordeste 0 1023.6 2 46
2017-11-09 20:00:00 16 21 Nordeste 37 Nordeste 0 1023.2 2.2 45
2017-11-09 19:00:00 16.5 25 Nordeste 38 Norte 0 1022.1 1.3 44
2017-11-09 18:00:00 17.3 28 Nordeste 43 Nordeste 0 1021.6 0.9 42
2017-11-09 17:00:00 18 26 Norte 40 Nordeste 0 1021 0.1 42
2017-11-09 16:00:00 18.1 28 Nordeste 41 Nordeste 0 1020.8 -0.8 40
2017-11-09 15:00:00 17.6 26 Nordeste 42 Nordeste 0 1020.7 -1.4 40
2017-11-09 14:00:00 17.4 27 Nordeste 44 Nordeste 0 1020.9 -1.3 42
2017-11-09 13:00:00 16 33 Norte 47 Norte 0 1021.6 -0.1 47
2017-11-09 12:00:00 15.2 35 Norte 50 Nordeste 0 1022.1 0.9 51
2017-11-09 11:00:00 14.3 32 Norte 48 Norte 0 1022.2 1.6 58
2017-11-09 10:00:00 13.6 30 Norte 38 Norte 0 1021.7 1.6 61
2017-11-09 09:00:00 13.1 30 Norte 41 Norte 0 1021.2 1.6 62
2017-11-09 08:00:00 13.7 27 Norte 37 Norte 0 1020.6 1.1 63
2017-11-09 07:00:00 13.9 27 Norte 36 Nordeste 0 1020.1 0.6 63
2017-11-09 06:00:00 14.3 30 Norte 37 Norte 0 1019.6 0 66
2017-11-09 05:00:00 14.2 26 Norte 33 Norte 0 1019.5 -0.3 65
2017-11-09 04:00:00 14.1 19 Norte 25 Norte 0 1019.5 -0.7 69
2017-11-09 03:00:00 14.6 19 Norte 31 Norte 0 1019.6 -0.6 67
2017-11-09 02:00:00 15.1 15 Norte 24 Norte 0 1019.8 -0.4 69
2017-11-09 01:00:00 15.5 18 Norte 23 Nordeste 0 1020.2 0 72
2017-11-09 00:00:00 16.6 9 Norte 23 Norte 0 1020.2 0.6 69
2017-11-08 23:00:00 18.6 12 Noroeste 16 Noroeste 0 1020.2 0.4 63
2017-11-08 22:00:00 19 10 Noroeste 23 Noroeste 0 1020.2 0.7 61
2017-11-08 21:00:00 19.3 13 Noroeste 19 Noroeste 0 1019.6 0.3 63
2017-11-08 20:00:00 19 9 Noroeste 16 Noroeste 0 1019.8 0.6 60
2017-11-08 19:00:00 18.7 8 Noroeste 19 Noroeste 0 1019.5 0.1 63
2017-11-08 18:00:00 19.1 15 Noroeste 22 Noroeste 0 1019.3 -0.3 60
2017-11-08 17:00:00 20.8 10 Noroeste 15 Oeste 0 1019.2 -0.8 53
2017-11-08 16:00:00 21.5 4 Noroeste 10 Noroeste 0 1019.4 -1.4 49
2017-11-08 15:00:00 20.4 10 Noroeste 16 Norte 0 1019.6 -1.8 51
2017-11-08 14:00:00 19.1 13 Norte 19 Norte 0 1020 -1.5 54
2017-11-08 13:00:00 18.2 15 Norte 18 Norte 0 1020.8 -0.4 57
2017-11-08 12:00:00 17 9 Norte 14 Norte 0 1021.4 0.6 59
2017-11-08 11:00:00 15.7 7 Norte 13 Norte 0 1021.5 1.4 65
2017-11-08 10:00:00 13.3 10 Norte 16 Norte 0 1021.2 1.5 68
2017-11-08 09:00:00 12.9 9 Norte 15 Norte 0 1020.8 1.5 68
2017-11-08 08:00:00 13.3 12 Norte 18 Norte 0 1020.1 0.9 69
2017-11-08 07:00:00 13.3 10 Norte 14 Norte 0 1019.7 0.5 65
2017-11-08 06:00:00 14.1 8 Norte 13 Nordeste 0 1019.3 0.1 60
2017-11-08 05:00:00 13.7 6 Norte 10 Este 0 1019.2 0 60
2017-11-08 04:00:00 13.1 6 Nordeste 9 Nordeste 0 1019.2 0.1 63
2017-11-08 03:00:00 13.4 6 Nordeste 8 Nordeste 0 1019.2 -0.2 63
2017-11-08 02:00:00 14 3 Este 16 Norte 0 1019.2 -0.2 60
2017-11-08 01:00:00 14.7 12 Norte 15 Norte 0 1019.1 0.2 61
2017-11-08 00:00:00 15 12 Norte 17 Norte 0 1019.4 0.7 59
2017-11-07 23:00:00 15.8 6 Nordeste 13 Nordeste 0 1019.4 1 60
2017-11-07 22:00:00 16.7 10 Norte 15 Norte 0 1018.9 0.8 57
2017-11-07 21:00:00 17.3 12 Norte 18 Norte 0 1018.7 0.9 57
2017-11-07 20:00:00 18.1 13 Norte 19 Norte 0 1018.4 0.7 52
2017-11-07 19:00:00 19 13 Nordeste 22 Norte 0 1018.1 0.5 48
2017-11-07 18:00:00 19.6 18 Norte 66 Norte 0 1017.8 -0.1 48
2017-11-07 17:00:00 20 20 Nordeste 29 Nordeste 0 1017.7 -0.5 43
2017-11-07 16:00:00 19.8 21 Nordeste 30 Norte 0 1017.6 -1.1 43
2017-11-07 15:00:00 19.2 17 Norte 25 Norte 0 1017.9 -1.4 51
2017-11-07 14:00:00 18.6 15 Norte 20 Norte 0 1018.2 -1.1 55
2017-11-07 13:00:00 17.5 13 Norte 19 Norte 0 1018.7 -0.4 57
2017-11-07 12:00:00 16.1 14 Norte 19 Norte 0 1019.3 0.5 57
2017-11-07 11:00:00 15.1 15 Norte 23 Norte 0 1019.3 1.3 59
2017-11-07 10:00:00 13.6 10 Nordeste 19 Norte 0 1019.1 1.8 64
2017-11-07 09:00:00 11.5 10 Norte 21 Norte 0 1018.8 1.5 71
2017-11-07 08:00:00 12.3 13 Norte 18 Norte 0 1018 0.8 70
2017-11-07 07:00:00 13.4 10 Norte 20 Norte 0 1017.3 -0.1 68
2017-11-07 06:00:00 13.8 14 Norte 21 Norte 0 1017.3 -0.2 66
2017-11-07 05:00:00 13.6 13 Nordeste 20 Norte 0 1017.2 -0.6 64
2017-11-07 04:00:00 13.7 13 Norte 21 Norte 0 1017.4 -0.6 67
2017-11-07 03:00:00 13.4 14 Nordeste 20 Nordeste 0 1017.5 -0.6 62
2017-11-07 02:00:00 14.2 12 Nordeste 19 Norte 0 1017.8 -0.4 59
2017-11-07 01:00:00 14.9 15 Norte 21 Norte 0 1018 0.2 63
2017-11-07 00:00:00 15.6 15 Norte 19 Norte 0 1018.1 0.5 64
2017-11-06 23:00:00 15.5 14 Norte 18 Norte 0 1018.2 0.7 61
2017-11-06 22:00:00 16.5 6 Nordeste 16 Norte 0 1017.8 0.3 56
2017-11-06 21:00:00 16.9 10 Nordeste 17 Nordeste 0 1017.6 0.4 54
2017-11-06 20:00:00 18 12 Nordeste 22 Nordeste 0 1017.5 0.3 52
2017-11-06 19:00:00 18.8 17 Nordeste 24 Nordeste 0 1017.5 0.2 51
2017-11-06 18:00:00 20.2 15 Norte 27 Nordeste 0 1017.2 -0.5 54
2017-11-06 17:00:00 20.8 21 Norte 26 Norte 0 1017.2 -1.4 56
2017-11-06 16:00:00 21 11 Norte 16 Norte 0 1017.3 -2.2 59
2017-11-06 15:00:00 20.3 14 Norte 17 Norte 0 1017.7 -2.8 62
2017-11-06 14:00:00 19.2 14 Norte 18 Norte 0 1018.6 -2.1 64
2017-11-06 13:00:00 18.4 15 Norte 19 Norte 0 1019.5 -1.1 67
2017-11-06 12:00:00 17.5 12 Norte 18 Norte 0 1020.5 0.2 69
2017-11-06 11:00:00 17.3 13 Nordeste 19 Nordeste 0 1020.7 1 67
2017-11-06 10:00:00 15.3 10 Nordeste 17 Nordeste 0 1020.6 1.1 78
2017-11-06 09:00:00 13.8 12 Norte 17 Norte 0 1020.3 0.8 88
2017-11-06 08:00:00 13.8 13 Norte 18 Norte 0 1019.7 0.2 90
2017-11-06 07:00:00 14 13 Norte 19 Norte 0 1019.5 -0.5 88
2017-11-06 06:00:00 14.8 14 Norte 24 Norte 0 1019.5 -0.7 87
2017-11-06 05:00:00 15.6 17 Norte 24 Norte 0 1019.5 -1.2 84
2017-11-06 04:00:00 16.1 12 Norte 27 Norte 0 1020 -1.2 83
2017-11-06 03:00:00 16.8 20 Norte 26 Norte 0 1020.2 -1.4 82
2017-11-06 02:00:00 17.1 15 Norte 20 Norte 0 1020.7 -0.8 81
2017-11-06 01:00:00 17.3 13 Norte 17 Norte 0 1021.2 0 79
2017-11-06 00:00:00 17.3 10 Norte 13 Norte 0 1021.6 0.6 79
2017-11-05 23:00:00 17.6 7 Nordeste 11 Nordeste 0 1021.5 0.5 75
2017-11-05 22:00:00 18.5 7 Norte 8 Norte 0 1021.2 0.5 75
2017-11-05 21:00:00 19.3 7 Noroeste 13 Norte 0 1021 0.5 70
2017-11-05 20:00:00 19.1 6 Noroeste 13 Noroeste 0 1021 0.4 70
2017-11-05 19:00:00 19 9 Noroeste 19 Noroeste 0 1020.7 0.3 69
2017-11-05 18:00:00 19.5 11 Noroeste 22 Noroeste 0 1020.5 -0.2 63
2017-11-05 17:00:00 19.7 15 Noroeste 23 Oeste 0 1020.6 -0.5 65
2017-11-05 16:00:00 19.8 15 Noroeste 23 Noroeste 0 1020.4 -1.3 65
2017-11-05 15:00:00 19.6 13 Oeste 19 Noroeste 0 1020.7 -1.6 68
2017-11-05 14:00:00 19.2 11 Noroeste 17 Noroeste 0 1021.1 -1.2 70
2017-11-05 13:00:00 18.3 12 Norte 15 Norte 0 1021.7 -0.5 72
2017-11-05 12:00:00 17.8 8 Norte 12 Nordeste 0 1022.3 0.7 75
2017-11-05 11:00:00 17.2 7 Norte 13 Norte 0 1022.3 1.5 78
2017-11-05 10:00:00 16 12 Norte 15 Norte 0 1022.2 1.7 82
2017-11-05 09:00:00 15.7 7 Norte 10 Norte 0 1021.6 1.5 83
2017-11-05 08:00:00 15.4 9 Norte 14 Norte 0 1020.8 1.2 84
2017-11-05 07:00:00 16.2 10 Norte 14 Norte 0 1020.5 1 81
2017-11-05 06:00:00 16.7 8 Norte 21 Norte 0 1020.1 0.8 82
2017-11-05 05:00:00 17.4 14 Noroeste 23 Noroeste 0 1019.6 0.6 78
2017-11-05 04:00:00 18 17 Noroeste 24 Noroeste 0 1019.5 0 78
2017-11-05 03:00:00 18.3 14 Noroeste 19 Noroeste 0 1019.3 -0.1 77
2017-11-05 02:00:00 18.3 12 Noroeste 23 Noroeste 0 1019 0 74
2017-11-05 01:00:00 18.8 17 Noroeste 32 Noroeste 0 1019.5 1.2 72
2017-11-05 00:00:00 19.3 17 Noroeste 28 Noroeste 0 1019.4 1.9 69
2017-11-04 23:00:00 19.7 13 Noroeste 26 Noroeste 0 1019 1.7 70
2017-11-04 22:00:00 19.6 18 Noroeste 30 Oeste 0 1018.3 1.6 65
2017-11-04 21:00:00 19.9 18 Oeste 33 Oeste 0 1017.5 1.4 70
2017-11-04 20:00:00 19.7 20 Oeste 32 Oeste 0 1017.3 1.5 70
2017-11-04 19:00:00 19.7 18 Oeste 32 Oeste 0 1016.7 1.4 69
2017-11-04 18:00:00 20.2 17 Oeste 35 Oeste 0 1016.1 0.9 66
2017-11-04 17:00:00 20.9 21 Oeste 36 Oeste 0 1015.8 0.6 63
2017-11-04 16:00:00 21.2 21 Oeste 32 Oeste 0 1015.3 -0.1 62
2017-11-04 15:00:00 20.8 17 Oeste 33 Sudoeste 0 1015.2 -0.3 64
2017-11-04 14:00:00 20.6 16 Oeste 31 Sudoeste 0 1015.2 0.3 66
2017-11-04 13:00:00 20.4 18 Oeste 30 Oeste 0 1015.4 1 68
2017-11-04 12:00:00 20.1 20 Oeste 31 Oeste 0 1015.5 2 67
2017-11-04 11:00:00 19.9 19 Oeste 35 Oeste 0 1014.9 2.3 69
2017-11-04 10:00:00 19.8 18 Oeste 32 Oeste 0 1014.4 2.3 72
2017-11-04 09:00:00 19.2 14 Oeste 34 Oeste 0 1013.5 1.6 79
2017-11-04 08:00:00 18.5 18 Oeste 38 Oeste 5.2 1012.6 0.6 82
2017-11-04 07:00:00 19.6 19 Oeste 38 Oeste 0 1012.1 0.2 75
2017-11-04 06:00:00 18.9 17 Sudoeste 31 Sudoeste 0.2 1011.9 -0.4 78
2017-11-04 05:00:00 18.8 10 Sudoeste 33 Oeste 0 1012 -0.5 83
2017-11-04 04:00:00 16 19 Sudoeste 48 Oeste 7.3 1011.9 -1 85
2017-11-04 03:00:00 18.3 9 Sudoeste 36 Sudoeste 1.3 1012.3 -- 82
2017-11-04 02:00:00 19.9 17 Sudoeste 28 Sudoeste 0 1012.5 -1.2 72
2017-11-04 01:00:00 20.1 15 Sudoeste 27 Sudoeste 0 1012.9 -0.4 72
2017-11-04 00:00:00 -- -- -- -- -- -- -- -- --
2017-11-03 23:00:00 19.5 16 Sudoeste 29 Sudoeste 0 1013.7 0.5 77
2017-11-03 22:00:00 19.5 9 Sudoeste 16 Sudoeste 0 1013.3 1 86
2017-11-03 21:00:00 18.7 8 Sudoeste 27 Noroeste 1.5 1013 1 85
2017-11-03 20:00:00 19.8 10 Sudoeste 18 Oeste 0 1013.2 1 83
2017-11-03 19:00:00 19.8 8 Oeste 16 Sudoeste 0 1012.3 -0.1 81
2017-11-03 18:00:00 19.9 8 Oeste 20 Sudoeste 0 1012 -0.9 85
2017-11-03 17:00:00 18.3 3 Sur 19 Oeste 15.9 1012.2 -1.1 92
2017-11-03 16:00:00 17.5 7 Norte 12 Sudeste 15.8 1012.4 -1.3 91
2017-11-03 15:00:00 16.6 15 Sudeste 39 Sur 26.9 1012.9 -1.2 88
2017-11-03 14:00:00 20 17 Sur 31 Sur 0.3 1013.3 -0.6 81
2017-11-03 13:00:00 21.3 21 Sur 28 Sur 0 1013.7 -0.4 73
2017-11-03 12:00:00 21.2 19 Sur 33 Sudeste 0 1014.1 0.3 72
2017-11-03 11:00:00 20.5 22 Sur 33 Sudeste 0 1013.9 0.4 78
2017-11-03 10:00:00 19.6 18 Sudeste 28 Sudeste 0 1014.1 0.8 84
2017-11-03 09:00:00 18.7 21 Sudeste 27 Sudeste 0 1013.8 0.4 87
2017-11-03 08:00:00 18.7 15 Sudeste 24 Sudeste 0 1013.5 0.1 87
2017-11-03 07:00:00 19.3 17 Sur 27 Sudeste 0 1013.3 -0.8 88
2017-11-03 06:00:00 19.4 16 Sudeste 27 Sudeste 0 1013.4 -1 86
2017-11-03 05:00:00 19.5 20 Sudeste 29 Sur 0 1013.4 -1.1 87
2017-11-03 04:00:00 19.4 18 Sudeste 27 Sur 0 1014.1 -0.9 87
2017-11-03 03:00:00 19.3 18 Sudeste 23 Sudeste 0 1014.4 0.9 85
2017-11-03 02:00:00 19.4 18 Sudeste 22 Sudeste 0 1014.5 -1.1 84
2017-11-03 01:00:00 19.3 12 Sudeste 25 Este 0 1015 -0.4 83
2017-11-03 00:00:00 19.6 9 Este 21 Este 0 1013.5 -2.1 81
2017-11-02 23:00:00 19.4 2 Sudeste 8 Sudeste 0 1015.6 0.4 81
2017-11-02 22:00:00 19.7 7 Este 12 Este 0 1015.4 0.6 82
2017-11-02 21:00:00 20 8 Sudeste 18 Sur 0 1015.6 0.5 82
2017-11-02 20:00:00 20.2 6 Sur 14 Sur 0 1015.2 0 78
2017-11-02 19:00:00 20.2 8 Sudoeste 15 Sudoeste 0 1014.8 -0.8 78
2017-11-02 18:00:00 20.6 9 Sudoeste 18 Sudoeste 0 1015.1 -1 74
2017-11-02 17:00:00 20.6 10 Sur 19 Sur 0 1015.2 -1.5 74
2017-11-02 16:00:00 20.7 12 Sur 21 Sudoeste 0 1015.6 -1.7 75
2017-11-02 15:00:00 20.9 13 Sudoeste 22 Sur 0 1016.1 -1.7 74
2017-11-02 14:00:00 21.4 12 Sur 23 Sur 0 1016.7 -1.3 72
2017-11-02 13:00:00 21.6 13 Sur 28 Sur 0 1017.3 -0.6 69
2017-11-02 12:00:00 21 18 Sur 30 Sur 0 1017.8 0.2 76
2017-11-02 11:00:00 21.5 22 Sur 31 Sur 0 1018 0.5 75
2017-11-02 10:00:00 20.3 16 Sudeste 23 Sudeste 0 1017.9 0.5 83
2017-11-02 09:00:00 19.6 16 Sudeste 21 Sudeste 0 1017.6 0.5 84
2017-11-02 08:00:00 19.2 15 Sudeste 23 Sur 0 1017.5 0.5 85
2017-11-02 07:00:00 19.2 13 Sur 26 Sudeste 0 1017.4 0.4 87
2017-11-02 06:00:00 19.4 18 Sudeste 30 Sur 0 1017.1 -0.3 86
2017-11-02 05:00:00 19.5 23 Sudeste 32 Sudeste 0 1017 -0.3 86
2017-11-02 04:00:00 19.3 23 Sudeste 31 Sudeste 0 1017 -0.2 84
2017-11-02 03:00:00 19.1 18 Sudeste 25 Sudeste 0 1017.4 0.1 80
2017-11-02 02:00:00 19.3 21 Sudeste 32 Sudeste 0 1017.3 -0.1 80
2017-11-02 01:00:00 19.6 26 Sudeste 37 Sudeste 0 1017.2 0.1 78
2017-11-02 00:00:00 19.4 25 Sudeste 36 Sudeste 0 1017.3 0.4 78
2017-11-01 23:00:00 19.6 29 Sudeste 41 Sudeste 0 1017.4 0.5 76
2017-11-01 22:00:00 19.7 24 Sudeste 35 Sudeste 0 1017.1 0.3 75
2017-11-01 21:00:00 20.1 24 Sudeste 32 Sudeste 0 1016.9 0.5 69
2017-11-01 20:00:00 20.5 23 Sudeste 33 Sudeste 0 1016.9 0.5 67
2017-11-01 19:00:00 21 23 Sudeste 37 Sudeste 0 1016.8 0.3 65
2017-11-01 18:00:00 21.9 27 Sudeste 38 Sudeste 0 1016.4 -0.2 64
2017-11-01 17:00:00 23 23 Sudeste 31 Sudeste 0 1016.4 -0.6 61
2017-11-01 16:00:00 23.8 21 Sudeste 31 Sudeste 0 1016.5 -1.1 57
2017-11-01 15:00:00 24.1 23 Sudeste 36 Sudeste 0 1016.6 -1.9 57
2017-11-01 14:00:00 23.6 28 Sudeste 42 Sudeste 0 1017 -1.6 59
2017-11-01 13:00:00 23.2 32 Sudeste 41 Sudeste 0 1017.6 -0.9 61
2017-11-01 12:00:00 22.8 29 Sudeste 41 Sudeste 0 1018.5 0.4 63
2017-11-01 11:00:00 22 34 Sudeste 42 Sudeste 0 1018.6 1.1 66
2017-11-01 10:00:00 21 24 Sudeste 33 Sudeste 0 1018.5 1.2 72
2017-11-01 09:00:00 19.7 24 Sudeste 30 Sudeste 0 1018.1 0.9 76
2017-11-01 08:00:00 19.1 21 Sudeste 28 Sudeste 0 1017.5 0.4 77
2017-11-01 07:00:00 19.1 17 Sudeste 30 Sudeste 0 1017.3 -0.1 77
2017-11-01 06:00:00 19.3 21 Sudeste 34 Sudeste 0 1017.2 -0.2 76
2017-11-01 05:00:00 19.4 27 Sudeste 35 Sudeste 0 1017.1 -0.3 75
2017-11-01 04:00:00 19.5 29 Sudeste 37 Sudeste 0 1017.4 -0.2 76
2017-11-01 03:00:00 19.4 28 Sudeste 39 Sudeste 0 1017.4 -0.2 77
2017-11-01 02:00:00 19.7 31 Sudeste 39 Sudeste 0 1017.4 -0.6 76
2017-11-01 01:00:00 19.6 27 Sudeste 44 Sudeste 0 1017.6 -0.1 77
2017-11-01 00:00:00 19.8 34 Sudeste 44 Sudeste 0 1017.6 0.1 76
2017-10-31 23:00:00 19.9 30 Sudeste 43 Sudeste 0 1018 0.9 74
2017-10-31 22:00:00 19.9 33 Este 46 Este 0 1017.7 0.8 74
2017-10-31 21:00:00 20.2 31 Este 42 Sudeste 0 1017.5 0.8 71
2017-10-31 20:00:00 20.3 30 Sudeste 40 Este 0 1017.1 0.8 66
2017-10-31 19:00:00 21.1 26 Este 42 Este 0 1016.9 0.8 63
2017-10-31 18:00:00 21.9 34 Sudeste 45 Este 0 1016.7 0.6 59
2017-10-31 17:00:00 23.1 28 Sudeste 40 Sudeste 0 1016.3 0 59
2017-10-31 16:00:00 23.7 28 Sudeste 40 Este 0 1016.1 -0.7 56
2017-10-31 15:00:00 24.1 28 Este 40 Sudeste 0 1016.1 -1.2 53
2017-10-31 14:00:00 24.2 28 Sudeste 39 Este 0 1016.3 -1.3 53
2017-10-31 13:00:00 23.7 27 Sudeste 38 Sudeste 0 1016.8 -0.5 56
2017-10-31 12:00:00 22.8 28 Sudeste 36 Sudeste 0 1017.3 0.6 62
2017-10-31 11:00:00 22.2 24 Este 30 Sudeste 0 1017.6 1.6 66
2017-10-31 10:00:00 21.2 14 Este 23 Este 0 1017.3 1.9 69
2017-10-31 09:00:00 19.7 9 Este 23 Este 0 1016.7 1.3 75
2017-10-31 08:00:00 18.4 9 Este 21 Sudeste 0 1016 0.7 80
2017-10-31 07:00:00 18.2 16 Este 24 Este 0 1015.4 0.7 79
2017-10-31 06:00:00 18.4 17 Este 22 Este 0 1015.4 0.4 80
2017-10-31 05:00:00 18.4 13 Este 20 Este 0 1015.3 0.2 79
2017-10-31 04:00:00 18.3 13 Este 22 Sudeste 0 1014.7 -0.5 78
2017-10-31 03:00:00 18.3 10 Este 25 Este 0 1015 -0.3 74
2017-10-31 02:00:00 18.5 21 Este 43 Este 0 1015.1 -0.3 76
2017-10-31 01:00:00 18.8 23 Este 32 Este 0 1015.2 0.1 75
2017-10-31 00:00:00 19.3 21 Este 27 Este 0 1015.3 0.5 74
2017-10-30 23:00:00 19.1 11 Este 19 Este 0 1015.4 0.9 76
2017-10-30 22:00:00 19.5 9 Este 16 Este 0 1015.1 1.1 74
2017-10-30 21:00:00 19.9 5 Sudeste 9 Sudeste 0 1014.8 1.1 81
2017-10-30 20:00:00 19.7 0 Calma 5 Sudoeste 0 1014.5 0.9 79
2017-10-30 19:00:00 20.1 3 Sudoeste 10 Sudoeste 0 1014 0.5 78
2017-10-30 18:00:00 20.9 7 Sudoeste 13 Sudoeste 0 1013.7 -0.2 73
2017-10-30 17:00:00 21.9 8 Sudoeste 14 Oeste 0 1013.6 -0.8 68
2017-10-30 16:00:00 22.5 9 Sudoeste 15 Sur 0 1013.5 -1.6 68
2017-10-30 15:00:00 22.5 9 Sur 14 Sur 0 1013.9 -1.9 65
2017-10-30 14:00:00 23.1 6 Sudoeste 19 Sudoeste 0 1014.4 -1.7 65
2017-10-30 13:00:00 22.2 11 Sudoeste 17 Oeste 0 1015.1 -0.9 65
2017-10-30 12:00:00 22.7 5 Sudeste 10 Sur 0 1015.8 0.3 63
2017-10-30 11:00:00 21.3 10 Sudeste 18 Este 0 1016.1 1 69
2017-10-30 10:00:00 19.9 5 Este 16 Este 0 1016 1.1 74
2017-10-30 09:00:00 18.1 9 Este 15 Este 0 1015.5 0.8 81
2017-10-30 08:00:00 17.3 13 Este 16 Este 0 1015.1 0 84
2017-10-30 07:00:00 17.1 10 Sudeste 16 Sudeste 0 1014.9 -0.4 84
2017-10-30 06:00:00 17.3 13 Sudeste 17 Sudeste 0 1014.7 -1.1 83
2017-10-30 05:00:00 17.6 10 Sudeste 14 Sudeste 0 1015.1 -0.9 79
2017-10-30 04:00:00 17.8 4 Este 8 Este 0 1015.3 -1.1 77
2017-10-30 03:00:00 18.3 5 Nordeste 8 Nordeste 0 1015.8 -1.1 72
2017-10-30 02:00:00 18.7 3 Nordeste 11 Este 0 1016 -1.2 72
2017-10-30 01:00:00 19.4 4 Este 13 Este 0 1016.4 -0.7 71
2017-10-30 00:00:00 19.7 5 Nordeste 15 Este 0 1016.9 -0.2 73
2017-10-29 23:00:00 19.7 5 Este 9 Este 0 1017.2 0.4 81
2017-10-29 22:00:00 20.2 3 Sudoeste 10 Sudoeste 0 1017.1 0.6 86
2017-10-29 21:00:00 20.6 5 Sudoeste 10 Sudoeste 0 1017.1 0.6 84
2017-10-29 20:00:00 21.1 7 Sudoeste 13 Sur 0 1016.8 0.2 81
2017-10-29 19:00:00 21.4 9 Sur 13 Sur 0 1016.5 -0.5 81
2017-10-29 18:00:00 24.2 3 Oeste 11 Oeste 0 1016.5 -0.8 61
2017-10-29 17:00:00 26.1 8 Oeste 11 Oeste 0 1016.6 -1.4 53
2017-10-29 16:00:00 24.8 8 Sudoeste 18 Sudoeste 0 1017 -1.9 62
2017-10-29 15:00:00 25.2 9 Sudoeste 19 Sudeste 0 1017.3 -2.2 57
2017-10-29 14:00:00 25.3 14 Este 23 Este 0 1018 -1.9 55
2017-10-29 13:00:00 24.8 17 Este 26 Este 0 1018.9 -1.3 57
2017-10-29 12:00:00 23.7 22 Este 33 Este 0 1019.5 -0.5 60
2017-10-29 11:00:00 22.5 26 Este 35 Este 0 1019.9 0.4 65
2017-10-29 10:00:00 20.7 9 Nordeste 16 Nordeste 0 1020.2 0.6 68
2017-10-29 09:00:00 18.2 10 Nordeste 17 Nordeste 0 1020 0.6 75
2017-10-29 08:00:00 18 11 Nordeste 16 Nordeste 0 1019.5 0.2 78
2017-10-29 07:00:00 18.4 8 Nordeste 26 Este 0 1019.6 0.5 77
2017-10-29 06:00:00 19.1 11 Este 28 Este 0 1019.4 -0.2 77
2017-10-29 05:00:00 19.1 16 Este 31 Este 0 1019.3 -0.5 76
2017-10-29 04:00:00 19.2 14 Este 32 Este 0 1019.1 -1 76
2017-10-29 03:00:00 19.3 13 Este 31 Este 0 1019.6 -0.7 75
2017-10-29 02:00:00 19.4 8 Este 28 Este 0 1019.8 -0.1 74
2017-10-29 01:00:00 19.7 19 Este 46 Este 0 1020.3 0.6 73
2017-10-29 00:00:00 20 33 Este 48 Este 0 1019.9 0.2 72
2017-10-28 23:00:00 20 37 Sudeste 50 Sudeste 0 1019.5 -0.3 75
2017-10-28 22:00:00 20.2 38 Sudeste 47 Sudeste 0 1019.7 0.3 72
2017-10-28 21:00:00 20.5 33 Sudeste 46 Este 0 1019.7 0.5 71
2017-10-28 20:00:00 21 31 Este 40 Sudeste 0 1019.8 0.9 68
2017-10-28 19:00:00 22 30 Este 40 Sudeste 0 1019.4 0.1 63
2017-10-28 18:00:00 23.1 25 Sudeste 33 Este 0 1019.2 -0.8 58
2017-10-28 17:00:00 24.7 16 Sudeste 26 Este 0 1018.9 -1.6 55
2017-10-28 16:00:00 25.3 10 Este 20 Este 0 1019.3 -1.6 55
2017-10-28 15:00:00 24.3 4 Sudoeste 15 Sudoeste 0 1020 -0.9 59
2017-10-28 14:00:00 23.1 9 Sudoeste 16 Sudoeste 0 1020.5 -0.4 61
2017-10-28 13:00:00 22.8 8 Sur 13 Sur 0 1020.9 0.1 62
2017-10-28 12:00:00 22.9 0 Calma 8 Nordeste 0 1020.9 0.5 56
2017-10-28 11:00:00 19.8 4 Nordeste 8 Nordeste 0 1020.9 0.8 64
2017-10-28 10:00:00 18.4 3 Nordeste 11 Nordeste 0 1020.8 0.8 72
2017-10-28 09:00:00 16.9 9 Nordeste 13 Nordeste 0 1020.4 0.3 74
2017-10-28 08:00:00 16.7 5 Noroeste 8 Norte 0 1020.1 0 80
2017-10-28 07:00:00 17.1 4 Norte 9 Norte 0 1020 -0.5 79
2017-10-28 06:00:00 17.1 8 Norte 13 Norte 0 1020.1 -0.8 76
2017-10-28 05:00:00 17.5 9 Norte 10 Norte 0 1020.1 -1.5 76
2017-10-28 04:00:00 18.4 4 Norte 9 Norte 0 1020.5 -1.7 76
2017-10-28 03:00:00 18.8 6 Norte 9 Norte 0 1020.9 -1.5 72
2017-10-28 02:00:00 19.3 5 Norte 10 Norte 0 1021.6 -0.9 69
2017-10-28 01:00:00 19.8 8 Norte 13 Norte 0 1022.2 -0.3 71
2017-10-28 00:00:00 20.3 5 Nordeste 13 Este 0 1022.4 -0.1 64
2017-10-27 23:00:00 20.8 7 Este 16 Este 0 1022.5 0 63
2017-10-27 22:00:00 21 0 Calma 6 Este 0 1022.5 0 82
2017-10-27 21:00:00 21.5 0 Calma 8 Sudoeste 0 1022.5 0 75
2017-10-27 20:00:00 22.2 6 Sudoeste 12 Sudoeste 0 1022.5 -0.1 71
2017-10-27 19:00:00 23.4 9 Sudoeste 17 Oeste 0 1022.5 -0.1 63
2017-10-27 18:00:00 24.9 13 Oeste 22 Oeste 0 1022.5 -0.6 59
2017-10-27 17:00:00 25.5 15 Oeste 22 Oeste 0 1022.6 -1.2 59
2017-10-27 16:00:00 27.1 12 Sudeste 22 Este 0 1022.6 -1.9 47
2017-10-27 15:00:00 26.4 16 Sudeste 31 Sudeste 0 1023.1 -1.7 47
2017-10-27 14:00:00 25.4 21 Este 31 Este 0 1023.8 -0.9 48
2017-10-27 13:00:00 24.9 18 Este 31 Este 0 1024.5 0.3 52
2017-10-27 12:00:00 23.8 24 Este 35 Este 0 1024.8 1 55
2017-10-27 11:00:00 22.3 19 Este 31 Este 0 1024.7 1.6 64
2017-10-27 10:00:00 20.6 10 Nordeste 22 Este 0 1024.2 1.1 68
2017-10-27 09:00:00 19.4 9 Este 26 Este 0 1023.8 1 70
2017-10-27 08:00:00 20.2 16 Este 28 Este 0 1023.1 0.4 69
2017-10-27 07:00:00 19.7 10 Este 21 Nordeste 0 1023.1 0.2 62
2017-10-27 06:00:00 19.8 10 Nordeste 28 Este 0 1022.8 -0.4 60
2017-10-27 05:00:00 20.4 12 Este 29 Este 0 1022.7 -0.6 64
2017-10-27 04:00:00 20.4 11 Este 30 Este 0 1022.9 -0.5 66
2017-10-27 03:00:00 20.4 17 Este 30 Este 0 1023.2 -0.5 66
2017-10-27 02:00:00 20.8 15 Este 35 Este 0 1023.3 0.1 65
2017-10-27 01:00:00 20.6 18 Este 26 Este 0 1023.4 0.6 66
2017-10-27 00:00:00 20.7 19 Este 37 Este 0 1023.7 1 67
2017-10-26 23:00:00 20.9 23 Este 40 Este 0 1023.2 1 66
2017-10-26 22:00:00 21.3 16 Este 41 Este 0 1022.8 1 62
2017-10-26 21:00:00 22 30 Este 46 Este 0 1022.7 1.1 54
2017-10-26 20:00:00 22.9 25 Este 39 Este 0 1022.2 0.5 51
2017-10-26 19:00:00 24.4 25 Este 41 Sudeste 0 1021.8 0 46
2017-10-26 18:00:00 25.6 31 Este 47 Este 0 1021.6 -0.7 43
2017-10-26 17:00:00 26.2 31 Este 44 Este 0 1021.7 -1.2 41
2017-10-26 16:00:00 26.4 29 Este 44 Sudeste 0 1021.8 -1.6 41
2017-10-26 15:00:00 25.9 34 Este 47 Este 0 1022.3 -1.3 41
2017-10-26 14:00:00 25.9 34 Este 45 Este 0 1022.9 -0.6 41
2017-10-26 13:00:00 25 32 Este 49 Este 0 1023.4 0.4 44
2017-10-26 12:00:00 24.5 27 Este 40 Este 0 1023.6 1.1 45
2017-10-26 11:00:00 21.7 8 Nordeste 17 Nordeste 0 1023.5 1.1 53
2017-10-26 10:00:00 20.1 6 Nordeste 13 Este 0 1023 0.9 60
2017-10-26 09:00:00 18.4 6 Nordeste 17 Este 0 1022.5 0.4 68
2017-10-26 08:00:00 19.4 9 Este 17 Este 0 1022.4 0.5 64
2017-10-26 07:00:00 19 8 Nordeste 13 Este 0 1022.1 -0.2 63
2017-10-26 06:00:00 18.8 7 Nordeste 12 Nordeste 0 1022.1 -0.2 64
2017-10-26 05:00:00 19.4 8 Nordeste 13 Nordeste 0 1021.9 -0.7 64
2017-10-26 04:00:00 19.1 6 Nordeste 11 Este 0 1022.3 -0.4 66
2017-10-26 03:00:00 19.8 6 Este 24 Este 0 1022.3 -0.3 67
2017-10-26 02:00:00 19.9 8 Este 32 Este 0 1022.6 -0.1 67
2017-10-26 01:00:00 20.4 29 Este 44 Este 0 1022.7 0.3 64
2017-10-26 00:00:00 20.9 33 Sudeste 43 Sudeste 0 1022.6 0.8 61
2017-10-25 23:00:00 20.6 27 Sudeste 37 Este 0 1022.7 1.4 64
2017-10-25 22:00:00 21.1 24 Este 34 Este 0 1022.4 1.3 63
2017-10-25 21:00:00 21.7 26 Este 35 Este 0 1021.8 1 57
2017-10-25 20:00:00 22.8 26 Este 36 Este 0 1021.3 0.5 51
2017-10-25 19:00:00 24.2 27 Sudeste 37 Este 0 1021.1 0.3 46
2017-10-25 18:00:00 25 24 Sudeste 33 Sudeste 0 1020.8 -0.5 47
2017-10-25 17:00:00 25.3 21 Sudeste 32 Sudeste 0 1020.8 -0.9 51
2017-10-25 16:00:00 -- -- -- -- -- -- -- -- --
2017-10-25 15:00:00 -- -- -- -- -- -- -- -- --
2017-10-25 14:00:00 -- -- -- -- -- -- -- -- --
2017-10-25 13:00:00 -- -- -- -- -- -- -- -- --
2017-10-25 12:00:00 -- -- -- -- -- -- -- -- --
2017-10-25 11:00:00 -- -- -- -- -- -- -- -- --
2017-10-25 10:00:00 -- -- -- -- -- -- -- -- --
2017-10-25 09:00:00 -- -- -- -- -- -- -- -- --
2017-10-25 08:00:00 -- -- -- -- -- -- -- -- --
2017-10-25 07:00:00 -- -- -- -- -- -- -- -- --
2017-10-25 06:00:00 -- -- -- -- -- -- -- -- --
2017-10-25 05:00:00 -- -- -- -- -- -- -- -- --
2017-10-25 04:00:00 -- -- -- -- -- -- -- -- --
2017-10-25 03:00:00 -- -- -- -- -- -- -- -- --
2017-10-25 02:00:00 -- -- -- -- -- -- -- -- --
2017-10-25 01:00:00 -- -- -- -- -- -- -- -- --
2017-10-25 00:00:00 -- -- -- -- -- -- -- -- --